createdAt,value
2022-11-21T00:03:30.809Z,6.8
2022-11-21T00:17:59.513Z,6.8
2022-11-21T00:32:27.928Z,6.8
2022-11-21T00:46:58.973Z,6.8
2022-11-21T01:01:26.392Z,6.8
2022-11-21T01:15:55.168Z,6.8
2022-11-21T01:30:24.861Z,6.7
2022-11-21T01:44:53.583Z,6.7
2022-11-21T01:59:21.924Z,6.5
2022-11-21T02:13:52.361Z,6.4
2022-11-21T02:28:20.312Z,6.5
2022-11-21T02:42:52.606Z,6.4
2022-11-21T02:57:19.371Z,6.3
2022-11-21T03:11:48.285Z,6.2
2022-11-21T03:26:16.934Z,6.3
2022-11-21T03:40:46.311Z,6.1
2022-11-21T03:55:15.083Z,6.3
2022-11-21T04:09:44.226Z,6
2022-11-21T04:24:13.311Z,6.2
2022-11-21T04:38:42.368Z,6
2022-11-21T04:53:11.419Z,5.9
2022-11-21T05:07:40.896Z,5.9
2022-11-21T05:22:10.368Z,5.8
2022-11-21T05:36:40.111Z,6.1
2022-11-21T05:51:09.493Z,6.1
2022-11-21T06:05:38.706Z,6.2
2022-11-21T06:20:07.476Z,6.1
2022-11-21T06:34:35.993Z,6.1
2022-11-21T06:49:05.305Z,6.1
2022-11-21T07:03:32.877Z,6.2
2022-11-21T07:18:02.507Z,6.2
2022-11-21T07:32:31.614Z,6.1
2022-11-21T07:47:00.700Z,6.3
2022-11-21T08:01:30.723Z,6.3
2022-11-21T08:15:59.957Z,6.3
2022-11-21T08:30:29.928Z,6.5
2022-11-21T08:44:59.169Z,6.4
2022-11-21T08:59:26.961Z,6.4
2022-11-21T09:13:56.368Z,6.4
2022-11-21T09:28:26.065Z,6.4
2022-11-21T09:42:55.587Z,6.5
2022-11-21T09:57:27.511Z,6.5
2022-11-21T10:11:58.452Z,6.6
2022-11-21T10:26:29.215Z,6.5
2022-11-21T10:40:58.597Z,6.6
2022-11-21T10:55:27.615Z,6.9
2022-11-21T11:09:57.966Z,7.1
2022-11-21T11:24:25.664Z,7
2022-11-21T11:38:54.432Z,7.2
2022-11-21T11:53:23.654Z,7.4
2022-11-21T12:22:56.404Z,7.4
2022-11-21T12:37:25.524Z,7.4
2022-11-21T12:51:54.469Z,7.6
2022-11-21T13:06:23.630Z,7.5
2022-11-21T13:20:52.091Z,7.6
2022-11-21T13:35:20.351Z,7.4
2022-11-21T13:49:50.968Z,7.4
2022-11-21T14:04:19.002Z,7.6
2022-11-21T14:18:48.459Z,7.3
2022-11-21T14:33:16.077Z,7
2022-11-21T14:47:45.163Z,6.7
2022-11-21T15:02:14.246Z,6.8
2022-11-21T15:16:42.045Z,6.4
2022-11-21T15:31:11.046Z,6
2022-11-21T15:45:39.079Z,5.8
2022-11-21T16:00:08.138Z,5.4
2022-11-21T16:14:36.196Z,5.5
2022-11-21T16:29:04.025Z,5.3
2022-11-21T16:43:32.474Z,5.4
2022-11-21T16:58:01.029Z,5.7
2022-11-21T17:12:29.424Z,5.6
2022-11-21T17:26:58.095Z,5.6
2022-11-21T17:41:25.798Z,5.7
2022-11-21T18:10:42.587Z,5.8
2022-11-21T18:25:03.623Z,5.9
2022-11-21T18:39:30.257Z,5.9
2022-11-21T18:53:58.502Z,6
2022-11-21T19:08:26.035Z,5.8
2022-11-21T19:22:54.667Z,5.8
2022-11-21T19:37:24.178Z,5.7
2022-11-21T19:51:54.517Z,5.8
2022-11-21T20:06:23.050Z,5.9
2022-11-21T20:20:52.674Z,6
2022-11-21T20:35:22.132Z,6
2022-11-21T20:49:50.333Z,6.1
2022-11-21T21:04:18.726Z,6
2022-11-21T21:18:52.258Z,6.2
2022-11-21T21:33:17.223Z,6.2
2022-11-21T21:47:46.504Z,6.1
2022-11-21T22:02:16.109Z,6.2
2022-11-21T22:16:45.881Z,6.2
2022-11-21T22:31:14.411Z,6.1
2022-11-21T22:45:43.127Z,6.1
2022-11-21T23:00:12.123Z,6.2
2022-11-21T23:14:40.571Z,6.1
2022-11-21T23:29:09.317Z,6
2022-11-21T23:43:34.993Z,5.8
2022-11-21T23:58:01.410Z,5.8
